createdAt,value
2022-09-09T00:04:28.488Z,100617.56
2022-09-09T00:09:39.699Z,100626.50
2022-09-09T00:14:49.402Z,100620.53
2022-09-09T00:19:56.926Z,100610.78
2022-09-09T00:25:10.014Z,100618.03
2022-09-09T00:30:18.158Z,100611.31
2022-09-09T00:35:25.688Z,100606.09
2022-09-09T00:40:33.782Z,100607.72
2022-09-09T00:45:59.293Z,100606.28
2022-09-09T00:51:11.821Z,100602.84
2022-09-09T00:56:19.667Z,100611.41
2022-09-09T01:01:21.903Z,100614.03
2022-09-09T01:06:31.074Z,100617.72
2022-09-09T01:11:44.159Z,100608.00
2022-09-09T01:16:47.746Z,100612.59
2022-09-09T01:21:56.475Z,100604.53
2022-09-09T01:27:02.403Z,100612.97
2022-09-09T01:32:39.009Z,100613.97
2022-09-09T01:37:42.154Z,100612.22
2022-09-09T01:42:44.355Z,100614.41
2022-09-09T01:47:47.296Z,100618.19
2022-09-09T01:52:56.043Z,100614.75
2022-09-09T01:58:12.242Z,100616.63
2022-09-09T02:03:25.024Z,100616.56
2022-09-09T02:08:39.653Z,100615.63
2022-09-09T02:13:44.161Z,100610.16
2022-09-09T02:18:52.276Z,100620.81
2022-09-09T02:24:00.328Z,100621.94
2022-09-09T02:29:06.062Z,100610.69
2022-09-09T02:34:11.646Z,100610.56
2022-09-09T02:39:15.426Z,100613.34
2022-09-09T02:44:19.246Z,100619.28
2022-09-09T02:49:29.660Z,100610.22
2022-09-09T02:54:34.868Z,100619.19
2022-09-09T02:59:36.766Z,100624.41
2022-09-09T03:04:38.568Z,100622.81
2022-09-09T03:09:41.970Z,100621.69
2022-09-09T03:14:44.006Z,100627.16
2022-09-09T03:19:45.997Z,100638.84
2022-09-09T03:24:49.455Z,100647.69
2022-09-09T03:29:51.415Z,100644.09
2022-09-09T03:34:53.539Z,100643.66
2022-09-09T03:39:57.146Z,100644.56
2022-09-09T03:44:59.261Z,100641.25
2022-09-09T03:50:00.910Z,100636.91
2022-09-09T03:55:05.423Z,100640.28
2022-09-09T04:00:09.087Z,100636.69
2022-09-09T04:05:10.800Z,100648.50
2022-09-09T04:10:14.493Z,100645.16
2022-09-09T04:15:16.473Z,100645.22
2022-09-09T04:20:18.361Z,100652.81
2022-09-09T04:25:21.856Z,100651.06
2022-09-09T04:30:24.580Z,100661.47
2022-09-09T04:35:26.580Z,100664.94
2022-09-09T04:40:29.603Z,100662.06
2022-09-09T04:45:31.504Z,100659.41
2022-09-09T04:50:33.177Z,100664.38
2022-09-09T04:55:36.231Z,100664.31
2022-09-09T05:00:38.654Z,100662.53
2022-09-09T05:05:40.719Z,100667.75
2022-09-09T05:10:44.032Z,100662.31
2022-09-09T05:15:52.859Z,100668.41
2022-09-09T05:20:59.784Z,100662.09
2022-09-09T05:26:03.831Z,100669.16
2022-09-09T05:31:07.080Z,100663.97
2022-09-09T05:36:11.257Z,100674.94
2022-09-09T05:41:15.814Z,100676.03
2022-09-09T05:46:19.406Z,100667.69
2022-09-09T05:51:23.068Z,100684.38
2022-09-09T05:56:28.404Z,100684.75
2022-09-09T06:01:32.813Z,100686.63
2022-09-09T06:06:36.728Z,100698.81
2022-09-09T06:11:40.831Z,100706.47
2022-09-09T06:16:43.116Z,100707.81
2022-09-09T06:21:45.162Z,100723.41
2022-09-09T06:26:48.110Z,100719.78
2022-09-09T06:31:50.158Z,100709.50
2022-09-09T06:36:52.208Z,100711.03
2022-09-09T06:41:55.201Z,100706.31
2022-09-09T06:46:57.215Z,100713.06
2022-09-09T06:51:58.917Z,100710.59
2022-09-09T06:57:11.150Z,100709.97
2022-09-09T07:02:23.491Z,100709.63
2022-09-09T07:07:25.196Z,100708.34
2022-09-09T07:12:28.252Z,100711.31
2022-09-09T07:17:30.398Z,100705.91
2022-09-09T07:22:32.056Z,100710.59
2022-09-09T07:27:35.238Z,100718.13
2022-09-09T07:32:37.193Z,100728.16
2022-09-09T07:37:39.164Z,100719.75
2022-09-09T07:42:42.677Z,100735.00
2022-09-09T07:47:44.665Z,100736.59
2022-09-09T07:52:46.826Z,100734.03
2022-09-09T07:57:49.834Z,100745.34
2022-09-09T08:02:51.554Z,100752.69
2022-09-09T08:07:53.230Z,100742.97
2022-09-09T08:13:16.880Z,100745.63
2022-09-09T08:18:19.429Z,100746.91
2022-09-09T08:23:21.397Z,100746.94
2022-09-09T08:28:24.698Z,100746.13
2022-09-09T08:33:26.737Z,100752.47
2022-09-09T08:38:28.415Z,100763.25
2022-09-09T08:43:33.124Z,100755.41
2022-09-09T08:48:52.532Z,100760.09
2022-09-09T08:53:59.777Z,100765.00
2022-09-09T08:59:04.100Z,100756.94
2022-09-09T09:04:18.565Z,100763.38
2022-09-09T09:09:29.388Z,100766.34
2022-09-09T09:14:37.101Z,100768.56
2022-09-09T09:19:41.474Z,100764.72
2022-09-09T09:24:51.297Z,100769.94
2022-09-09T09:30:21.483Z,100771.13
2022-09-09T09:35:19.690Z,100757.59
2022-09-09T09:40:22.909Z,100752.94
2022-09-09T09:45:30.246Z,100747.00
2022-09-09T09:50:32.842Z,100759.19
2022-09-09T09:55:36.409Z,100754.59
2022-09-09T10:00:49.185Z,100760.88
2022-09-09T10:05:51.453Z,100762.16
2022-09-09T10:11:03.462Z,100765.19
2022-09-09T10:16:22.078Z,100753.22
2022-09-09T10:21:37.839Z,100759.41
2022-09-09T10:26:49.448Z,100757.78
2022-09-09T10:32:03.419Z,100751.97
2022-09-09T10:37:23.611Z,100753.22
2022-09-09T10:42:31.780Z,100752.84
2022-09-09T10:47:47.149Z,100758.56
2022-09-09T10:53:01.409Z,100764.50
2022-09-09T10:58:06.104Z,100744.19
2022-09-09T11:03:20.006Z,100746.13
2022-09-09T11:08:24.942Z,100744.47
2022-09-09T11:13:36.615Z,100737.34
2022-09-09T11:18:43.563Z,100739.63
2022-09-09T11:23:52.961Z,100737.28
2022-09-09T11:29:17.186Z,100731.69
2022-09-09T11:34:32.663Z,100739.44
2022-09-09T11:40:08.988Z,100725.59
2022-09-09T11:45:20.405Z,100731.25
2022-09-09T11:50:33.065Z,100723.09
2022-09-09T11:55:36.003Z,100712.84
2022-09-09T12:00:40.211Z,100716.06
2022-09-09T12:05:46.905Z,100708.03
2022-09-09T12:10:54.921Z,100694.00
2022-09-09T12:15:58.039Z,100689.78
2022-09-09T12:21:07.973Z,100688.63
2022-09-09T12:26:29.388Z,100694.63
2022-09-09T12:31:42.677Z,100687.69
2022-09-09T12:36:54.579Z,100687.47
2022-09-09T12:41:56.337Z,100693.03
2022-09-09T12:47:01.904Z,100698.13
2022-09-09T12:52:09.930Z,100693.44
2022-09-09T12:57:13.639Z,100699.19
2022-09-09T13:02:22.115Z,100710.19
2022-09-09T13:07:25.451Z,100714.34
2022-09-09T13:12:27.198Z,100705.09
2022-09-09T13:17:28.947Z,100707.16
2022-09-09T13:22:36.611Z,100684.44
2022-09-09T13:27:41.337Z,100669.53
2022-09-09T13:32:43.059Z,100665.44
2022-09-09T13:37:46.224Z,100674.50
2022-09-09T13:42:48.487Z,100678.25
2022-09-09T13:47:50.866Z,100670.34
2022-09-09T13:52:56.833Z,100676.75
2022-09-09T13:58:00.564Z,100663.75
2022-09-09T14:03:02.753Z,100676.75
2022-09-09T14:08:06.805Z,100673.59
2022-09-09T14:13:08.528Z,100669.59
2022-09-09T14:18:12.394Z,100664.78
2022-09-09T14:23:15.448Z,100659.03
2022-09-09T14:28:20.508Z,100657.91
2022-09-09T14:33:28.490Z,100669.44
2022-09-09T14:38:33.945Z,100670.91
2022-09-09T14:43:35.889Z,100672.75
2022-09-09T14:48:38.444Z,100681.22
2022-09-09T14:53:41.743Z,100681.78
2022-09-09T14:58:44.265Z,100676.59
2022-09-09T15:03:51.438Z,100681.09
2022-09-09T15:08:55.016Z,100672.81
2022-09-09T15:13:57.140Z,100662.78
2022-09-09T15:19:00.570Z,100652.84
2022-09-09T15:24:04.787Z,100648.84
2022-09-09T15:29:07.066Z,100646.41
2022-09-09T15:34:09.448Z,100633.25
2022-09-09T15:39:14.398Z,100626.72
2022-09-09T15:44:16.826Z,100623.88
2022-09-09T15:49:20.397Z,100626.38
2022-09-09T15:54:24.653Z,100636.41
2022-09-09T15:59:28.480Z,100629.25
2022-09-09T16:04:30.239Z,100625.41
2022-09-09T16:09:34.333Z,100645.81
2022-09-09T16:14:36.340Z,100663.91
2022-09-09T16:19:38.253Z,100669.16
2022-09-09T16:24:41.882Z,100678.72
2022-09-09T16:29:43.770Z,100671.94
2022-09-09T16:34:45.613Z,100681.03
2022-09-09T16:39:48.656Z,100669.34
2022-09-09T16:44:50.811Z,100669.41
2022-09-09T16:49:52.529Z,100675.59
2022-09-09T16:54:55.651Z,100667.88
2022-09-09T16:59:57.566Z,100658.44
2022-09-09T17:04:59.602Z,100647.94
2022-09-09T17:10:02.905Z,100653.53
2022-09-09T17:15:05.589Z,100665.19
2022-09-09T17:20:09.513Z,100665.50
2022-09-09T17:25:12.876Z,100667.63
2022-09-09T17:30:15.127Z,100657.63
2022-09-09T17:35:17.060Z,100661.97
2022-09-09T17:40:20.248Z,100659.59
2022-09-09T17:45:21.993Z,100661.56
2022-09-09T17:50:23.803Z,100682.06
2022-09-09T17:55:27.515Z,100694.28
2022-09-09T18:00:29.246Z,100685.47
2022-09-09T18:05:30.875Z,100682.16
2022-09-09T18:10:35.100Z,100681.53
2022-09-09T18:15:49.253Z,100692.47
2022-09-09T18:20:58.539Z,100695.31
2022-09-09T18:26:01.730Z,100702.75
2022-09-09T18:31:06.244Z,100707.47
2022-09-09T18:36:09.510Z,100722.19
2022-09-09T18:41:17.209Z,100739.06
2022-09-09T18:46:19.741Z,100740.94
2022-09-09T18:51:23.942Z,100744.41
2022-09-09T18:56:27.424Z,100744.91
2022-09-09T19:01:30.101Z,100754.56
2022-09-09T19:06:33.474Z,100752.97
2022-09-09T19:11:36.984Z,100755.47
2022-09-09T19:16:40.694Z,100761.19
2022-09-09T19:21:43.134Z,100759.31
2022-09-09T19:26:48.321Z,100767.91
2022-09-09T19:32:18.976Z,100772.06
2022-09-09T19:37:18.650Z,100774.13
2022-09-09T19:42:21.979Z,100771.56
2022-09-09T19:47:23.793Z,100778.78
2022-09-09T19:52:26.149Z,100776.81
2022-09-09T19:57:29.565Z,100777.94
2022-09-09T20:02:31.323Z,100771.56
2022-09-09T20:07:33.009Z,100784.25
2022-09-09T20:12:36.212Z,100791.00
2022-09-09T20:17:38.324Z,100791.22
2022-09-09T20:22:40.402Z,100787.09
2022-09-09T20:27:43.568Z,100787.34
2022-09-09T20:32:45.504Z,100797.66
2022-09-09T20:37:47.270Z,100793.97
2022-09-09T20:42:50.861Z,100788.91
2022-09-09T20:47:52.505Z,100773.63
2022-09-09T20:52:54.166Z,100752.44
2022-09-09T20:57:57.487Z,100751.22
2022-09-09T21:02:59.233Z,100750.44
2022-09-09T21:08:00.880Z,100755.66
2022-09-09T21:13:03.870Z,100746.81
2022-09-09T21:18:06.044Z,100747.56
2022-09-09T21:23:07.729Z,100751.22
2022-09-09T21:28:11.384Z,100741.00
2022-09-09T21:33:13.878Z,100744.72
2022-09-09T21:38:17.310Z,100744.84
2022-09-09T21:43:20.808Z,100752.91
2022-09-09T21:48:22.566Z,100755.56
2022-09-09T21:53:24.236Z,100760.16
2022-09-09T21:58:27.291Z,100752.28
2022-09-09T22:03:28.947Z,100761.13
2022-09-09T22:08:30.723Z,100752.84
2022-09-09T22:13:34.742Z,100760.88
2022-09-09T22:18:36.509Z,100767.13
2022-09-09T22:23:38.375Z,100761.81
2022-09-09T22:28:41.572Z,100763.88
2022-09-09T22:33:43.464Z,100761.47
2022-09-09T22:38:45.124Z,100761.56
2022-09-09T22:43:48.514Z,100772.31
2022-09-09T22:48:50.525Z,100773.97
2022-09-09T22:53:52.202Z,100764.31
2022-09-09T22:58:56.796Z,100767.03
2022-09-09T23:03:58.574Z,100764.13
2022-09-09T23:09:02.243Z,100762.09
2022-09-09T23:14:07.642Z,100755.84
2022-09-09T23:19:12.068Z,100751.59
2022-09-09T23:24:15.658Z,100754.69
2022-09-09T23:29:18.674Z,100758.44
2022-09-09T23:34:20.628Z,100764.72
2022-09-09T23:39:22.565Z,100765.91
2022-09-09T23:44:25.680Z,100760.31
2022-09-09T23:49:27.360Z,100752.94
2022-09-09T23:54:29.272Z,100750.16
2022-09-09T23:59:32.279Z,100750.38
